createdAt,value
2019-05-07T00:00:43.854Z,3.97
2019-05-07T00:03:12.245Z,9.27
2019-05-07T00:05:42.607Z,6.93
2019-05-07T00:08:08.488Z,5.60
2019-05-07T00:10:36.368Z,5.77
2019-05-07T00:13:02.737Z,6.00
2019-05-07T00:15:29.003Z,4.53
2019-05-07T00:17:55.653Z,7.27
2019-05-07T00:20:23.138Z,4.30
2019-05-07T00:22:49.448Z,5.93
2019-05-07T00:25:15.780Z,11.53
2019-05-07T00:27:42.712Z,7.07
2019-05-07T00:30:09.427Z,5.63
2019-05-07T00:32:35.692Z,8.87
2019-05-07T00:35:09.685Z,6.00
2019-05-07T00:37:45.090Z,5.80
2019-05-07T00:40:29.008Z,5.70
2019-05-07T00:43:06.245Z,7.70
2019-05-07T00:45:43.602Z,4.00
2019-05-07T00:48:20.029Z,5.43
2019-05-07T00:50:52.732Z,6.27
2019-05-07T00:53:19.306Z,4.53
2019-05-07T00:55:48.775Z,4.40
2019-05-07T00:58:15.236Z,4.33
2019-05-07T01:00:42.204Z,4.20
2019-05-07T01:03:08.652Z,4.70
2019-05-07T01:05:34.920Z,6.60
2019-05-07T01:08:02.593Z,4.20
2019-05-07T01:10:29.150Z,6.73
2019-05-07T01:12:55.462Z,5.07
2019-05-07T01:15:30.672Z,9.70
2019-05-07T01:17:52.049Z,4.77
2019-05-07T01:20:18.534Z,3.77
2019-05-07T01:22:44.896Z,6.13
2019-05-07T01:25:12.883Z,6.60
2019-05-07T01:27:39.377Z,4.27
2019-05-07T01:30:06.156Z,4.40
2019-05-07T01:32:37.294Z,5.73
2019-05-07T01:35:15.970Z,4.80
2019-05-07T01:37:42.490Z,6.17
2019-05-07T01:40:09.080Z,4.00
2019-05-07T01:42:36.716Z,3.97
2019-05-07T01:45:07.081Z,4.07
2019-05-07T01:47:33.454Z,4.37
2019-05-07T01:49:59.697Z,6.83
2019-05-07T01:52:25.938Z,4.40
2019-05-07T01:54:52.413Z,6.70
2019-05-07T01:57:18.822Z,6.70
2019-05-07T01:59:45.122Z,7.97
2019-05-07T02:02:15.916Z,5.03
2019-05-07T02:04:44.136Z,4.50
2019-05-07T02:07:18.330Z,5.40
2019-05-07T02:09:46.537Z,5.53
2019-05-07T02:12:14.800Z,4.17
2019-05-07T02:14:42.235Z,5.00
2019-05-07T02:17:08.716Z,4.40
2019-05-07T02:19:34.995Z,4.40
2019-05-07T02:22:02.852Z,7.40
2019-05-07T02:24:29.251Z,4.30
2019-05-07T02:26:55.547Z,4.83
2019-05-07T02:29:22.818Z,5.07
2019-05-07T02:31:49.305Z,8.53
2019-05-07T02:34:15.558Z,7.30
2019-05-07T02:36:45.572Z,5.30
2019-05-07T02:39:13.712Z,6.80
2019-05-07T02:41:40.225Z,5.10
2019-05-07T02:44:06.644Z,4.30
2019-05-07T02:46:43.928Z,5.73
2019-05-07T02:49:14.759Z,5.73
2019-05-07T02:51:45.596Z,4.40
2019-05-07T02:54:19.762Z,4.53
2019-05-07T02:56:46.860Z,7.20
2019-05-07T02:59:13.615Z,5.30
2019-05-07T03:01:43.217Z,5.00
2019-05-07T03:04:08.808Z,4.70
2019-05-07T03:06:35.300Z,4.90
2019-05-07T03:09:03.219Z,4.30
2019-05-07T03:11:29.688Z,4.93
2019-05-07T03:14:02.435Z,6.20
2019-05-07T03:16:39.688Z,5.43
2019-05-07T03:18:56.621Z,6.77
2019-05-07T03:21:23.737Z,7.17
2019-05-07T03:24:07.326Z,4.60
2019-05-07T03:26:35.642Z,4.57
2019-05-07T03:29:04.121Z,5.40
2019-05-07T03:31:36.434Z,4.40
2019-05-07T03:34:19.050Z,4.90
2019-05-07T03:36:55.821Z,5.00
2019-05-07T03:39:18.749Z,8.90
2019-05-07T03:41:45.006Z,5.47
2019-05-07T03:44:33.595Z,5.07
2019-05-07T03:47:19.120Z,6.67
2019-05-07T03:49:45.471Z,5.17
2019-05-07T03:52:13.628Z,5.20
2019-05-07T03:54:42.872Z,6.87
2019-05-07T03:57:11.229Z,6.43
2019-05-07T03:59:37.312Z,6.07
2019-05-07T04:02:04.828Z,10.00
2019-05-07T04:04:33.197Z,5.07
2019-05-07T04:06:59.370Z,6.10
2019-05-07T04:09:33.374Z,6.90
2019-05-07T04:12:08.751Z,4.93
2019-05-07T04:14:35.112Z,7.93
2019-05-07T04:17:14.476Z,7.17
2019-05-07T04:19:32.653Z,5.60
2019-05-07T04:21:58.138Z,6.90
2019-05-07T04:24:33.721Z,5.73
2019-05-07T04:27:03.752Z,10.50
2019-05-07T04:29:30.374Z,5.40
2019-05-07T04:31:58.237Z,5.73
2019-05-07T04:35:04.088Z,5.80
2019-05-07T04:38:05.437Z,5.27
2019-05-07T04:40:53.759Z,6.80
2019-05-07T04:43:47.895Z,5.10
2019-05-07T04:46:15.288Z,5.43
2019-05-07T04:52:59.032Z,5.40
2019-05-07T04:55:13.846Z,6.03
2019-05-07T04:57:36.513Z,4.73
2019-05-07T05:03:30.356Z,8.20
2019-05-07T05:09:44.923Z,6.07
2019-05-07T05:12:13.150Z,8.23
2019-05-07T05:14:46.820Z,7.93
2019-05-07T05:17:16.492Z,5.60
2019-05-07T05:19:43.998Z,4.23
2019-05-07T05:22:59.923Z,5.47
2019-05-07T05:25:26.042Z,8.73
2019-05-07T05:33:46.460Z,4.80
2019-05-07T05:36:42.291Z,3.87
2019-05-07T05:39:09.919Z,4.23
2019-05-07T05:41:51.807Z,3.10
2019-05-07T05:44:22.613Z,3.83
2019-05-07T05:46:48.463Z,3.50
2019-05-07T05:49:14.715Z,2.93
2019-05-07T05:51:43.100Z,2.53
2019-05-07T05:54:28.021Z,4.50
2019-05-07T05:57:02.649Z,4.57
2019-05-07T05:59:47.415Z,2.80
2019-05-07T06:02:18.757Z,2.80
2019-05-07T06:05:06.404Z,3.80
2019-05-07T06:07:43.481Z,3.50
2019-05-07T06:10:17.806Z,4.93
2019-05-07T06:12:46.113Z,3.20
2019-05-07T06:15:22.209Z,7.10
2019-05-07T06:17:56.389Z,4.43
2019-05-07T06:20:24.971Z,5.03
2019-05-07T06:23:09.871Z,3.00
2019-05-07T06:25:36.329Z,9.10
2019-05-07T06:28:02.822Z,8.17
2019-05-07T06:30:29.258Z,6.23
2019-05-07T06:32:55.511Z,7.33
2019-05-07T06:35:22.981Z,6.27
2019-05-07T06:37:49.524Z,4.97
2019-05-07T06:40:25.561Z,4.30
2019-05-07T06:43:06.852Z,6.63
2019-05-07T06:45:51.993Z,7.53
2019-05-07T06:48:33.034Z,5.63
2019-05-07T06:50:55.486Z,6.77
2019-05-07T06:53:22.303Z,9.50
2019-05-07T06:55:48.615Z,5.20
2019-05-07T06:58:14.885Z,9.23
2019-05-07T07:00:44.570Z,9.20
2019-05-07T07:03:27.964Z,5.67
2019-05-07T07:05:56.116Z,6.23
2019-05-07T07:08:24.288Z,8.57
2019-05-07T07:11:02.617Z,14.33
2019-05-07T07:13:29.032Z,15.73
2019-05-07T07:15:55.347Z,8.70
2019-05-07T07:18:23.069Z,16.07
2019-05-07T07:20:52.076Z,8.77
2019-05-07T07:30:29.235Z,8.60
2019-05-07T07:32:59.548Z,8.93
2019-05-07T07:45:15.245Z,6.70
2019-05-07T07:47:42.217Z,8.40
2019-05-07T07:50:09.091Z,10.30
2019-05-07T07:52:35.337Z,6.20
2019-05-07T07:55:03.030Z,9.70
2019-05-07T07:57:48.015Z,9.77
2019-05-07T08:00:18.282Z,8.20
2019-05-07T08:02:46.312Z,7.20
2019-05-07T08:05:12.696Z,8.30
2019-05-07T08:07:42.451Z,5.53
2019-05-07T08:10:09.090Z,8.17
2019-05-07T08:12:35.445Z,9.10
2019-05-07T08:15:14.607Z,7.10
2019-05-07T08:17:32.634Z,7.13
2019-05-07T08:19:59.045Z,7.53
2019-05-07T08:22:25.518Z,6.67
2019-05-07T08:24:53.739Z,7.27
2019-05-07T08:27:22.106Z,7.13
2019-05-07T08:30:44.770Z,10.70
2019-05-07T08:39:19.341Z,13.43
2019-05-07T08:45:04.329Z,12.53
2019-05-07T08:50:57.937Z,10.73
2019-05-07T08:53:39.597Z,9.23
2019-05-07T09:02:54.685Z,8.00
2019-05-07T09:06:02.481Z,8.33
2019-05-07T09:15:32.127Z,7.40
2019-05-07T09:30:53.214Z,8.17
2019-05-07T09:33:24.044Z,10.63
2019-05-07T09:35:52.884Z,6.00
2019-05-07T09:38:19.451Z,7.70
2019-05-07T09:40:45.708Z,6.83
2019-05-07T09:43:12.018Z,7.13
2019-05-07T09:45:38.430Z,8.77
2019-05-07T09:48:05.066Z,7.50
2019-05-07T09:50:32.486Z,30.37
2019-05-07T09:52:58.962Z,12.20
2019-05-07T09:55:25.328Z,11.67
2019-05-07T09:57:52.771Z,11.93
2019-05-07T10:00:22.600Z,14.00
2019-05-07T10:02:49.120Z,8.30
2019-05-07T10:05:15.791Z,9.53
2019-05-07T10:07:42.489Z,10.37
2019-05-07T10:10:11.980Z,11.07
2019-05-07T10:12:42.068Z,11.30
2019-05-07T10:15:09.077Z,5.80
2019-05-07T10:17:37.342Z,10.33
2019-05-07T10:20:18.198Z,8.97
2019-05-07T10:22:36.045Z,8.37
2019-05-07T10:25:04.423Z,5.90
2019-05-07T10:27:32.505Z,11.97
2019-05-07T10:29:59.324Z,12.23
2019-05-07T10:32:25.582Z,7.93
2019-05-07T10:34:52.564Z,7.73
2019-05-07T10:37:19.399Z,5.97
2019-05-07T10:39:55.867Z,5.97
2019-05-07T10:42:22.715Z,11.63
2019-05-07T10:45:06.276Z,6.70
2019-05-07T10:47:41.868Z,8.30
2019-05-07T10:50:35.446Z,8.23
2019-05-07T10:52:52.846Z,6.80
2019-05-07T10:55:19.260Z,9.00
2019-05-07T10:57:45.807Z,7.40
2019-05-07T11:00:16.280Z,10.50
2019-05-07T11:02:42.697Z,6.43
2019-05-07T11:05:09.244Z,6.83
2019-05-07T11:07:35.602Z,8.50
2019-05-07T11:10:06.327Z,4.77
2019-05-07T11:12:32.614Z,6.63
2019-05-07T11:14:59.453Z,9.67
2019-05-07T11:17:33.611Z,7.70
2019-05-07T11:19:59.950Z,7.97
2019-05-07T11:22:26.203Z,15.10
2019-05-07T11:24:52.579Z,7.13
2019-05-07T11:27:22.425Z,7.53
2019-05-07T11:29:51.462Z,7.43
2019-05-07T11:32:17.676Z,8.10
2019-05-07T11:34:44.633Z,8.80
2019-05-07T11:37:11.964Z,8.87
2019-05-07T11:39:38.426Z,9.73
2019-05-07T11:42:22.122Z,6.13
2019-05-07T11:44:49.268Z,4.17
2019-05-07T11:47:22.632Z,7.87
2019-05-07T11:50:07.306Z,7.40
2019-05-07T11:52:35.933Z,9.23
2019-05-07T11:55:03.713Z,7.20
2019-05-07T11:57:30.027Z,11.23
2019-05-07T11:59:56.291Z,10.23
2019-05-07T12:02:22.743Z,16.50
2019-05-07T12:04:48.983Z,13.13
2019-05-07T12:07:15.333Z,8.80
2019-05-07T12:09:41.692Z,7.57
2019-05-07T12:12:07.961Z,9.00
2019-05-07T12:14:34.919Z,11.03
2019-05-07T12:17:03.506Z,8.20
2019-05-07T12:19:29.750Z,9.00
2019-05-07T12:21:56.105Z,9.77
2019-05-07T12:24:22.772Z,6.57
2019-05-07T12:26:49.018Z,13.17
2019-05-07T12:29:15.272Z,6.70
2019-05-07T12:31:49.621Z,6.30
2019-05-07T12:34:17.800Z,7.97
2019-05-07T12:36:44.116Z,10.83
2019-05-07T12:39:12.566Z,13.03
2019-05-07T12:41:38.818Z,7.20
2019-05-07T12:44:07.487Z,8.33
2019-05-07T12:46:34.734Z,7.40
2019-05-07T12:49:03.140Z,7.33
2019-05-07T12:51:36.228Z,12.47
2019-05-07T12:53:59.697Z,14.57
2019-05-07T12:56:25.972Z,6.83
2019-05-07T12:58:52.237Z,12.00
2019-05-07T13:01:32.982Z,7.13
2019-05-07T13:04:06.749Z,8.67
2019-05-07T13:06:35.062Z,12.60
2019-05-07T13:09:02.914Z,11.30
2019-05-07T13:11:35.808Z,9.97
2019-05-07T13:14:03.399Z,11.73
2019-05-07T13:16:29.960Z,8.70
2019-05-07T13:18:56.221Z,10.83
2019-05-07T13:21:22.683Z,8.13
2019-05-07T13:23:48.988Z,9.27
2019-05-07T13:26:15.628Z,7.10
2019-05-07T13:28:44.237Z,10.87
2019-05-07T13:31:10.173Z,7.73
2019-05-07T13:33:38.125Z,9.17
2019-05-07T13:36:05.867Z,6.67
2019-05-07T13:38:51.760Z,7.50
2019-05-07T13:41:36.645Z,6.67
2019-05-07T13:44:12.378Z,10.77
2019-05-07T13:46:42.142Z,7.37
2019-05-07T13:49:09.771Z,8.30
2019-05-07T13:51:36.509Z,11.90
2019-05-07T13:54:03.274Z,8.93
2019-05-07T13:56:29.785Z,11.37
2019-05-07T13:58:56.132Z,16.33
2019-05-07T14:01:24.572Z,10.70
2019-05-07T14:03:50.860Z,10.80
2019-05-07T14:06:35.850Z,7.40
2019-05-07T14:09:08.120Z,11.23
2019-05-07T14:11:34.985Z,9.70
2019-05-07T14:14:01.809Z,8.70
2019-05-07T14:16:28.966Z,8.80
2019-05-07T14:18:55.664Z,17.53
2019-05-07T14:21:22.001Z,8.67
2019-05-07T14:23:48.388Z,6.80
2019-05-07T14:26:14.626Z,12.27
2019-05-07T14:28:42.277Z,7.27
2019-05-07T14:31:12.323Z,8.50
2019-05-07T14:33:49.719Z,11.10
2019-05-07T14:36:22.387Z,11.20
2019-05-07T14:38:52.040Z,9.43
2019-05-07T14:41:18.466Z,12.30
2019-05-07T14:44:03.113Z,10.87
2019-05-07T14:46:43.628Z,7.00
2019-05-07T14:48:58.089Z,9.00
2019-05-07T14:51:24.439Z,13.40
2019-05-07T14:53:52.997Z,14.67
2019-05-07T14:56:19.254Z,6.83
2019-05-07T14:58:46.035Z,13.60
2019-05-07T15:01:24.095Z,13.73
2019-05-07T15:03:51.683Z,10.27
2019-05-07T15:06:18.454Z,9.43
2019-05-07T15:08:48.554Z,12.17
2019-05-07T15:11:14.985Z,10.67
2019-05-07T15:13:42.767Z,12.10
2019-05-07T15:16:09.136Z,9.37
2019-05-07T15:18:46.042Z,12.70
2019-05-07T15:21:18.024Z,14.53
2019-05-07T15:44:14.668Z,9.00
2019-05-07T15:47:47.601Z,16.50
2019-05-07T15:50:38.223Z,6.73
2019-05-07T15:53:54.002Z,9.80
2019-05-07T16:03:25.705Z,13.30
2019-05-07T16:05:54.657Z,11.50
2019-05-07T16:08:28.161Z,9.80
2019-05-07T16:10:55.577Z,14.23
2019-05-07T16:13:32.736Z,18.70
2019-05-07T16:16:12.634Z,11.33
2019-05-07T16:18:58.665Z,8.10
2019-05-07T16:21:32.455Z,11.43
2019-05-07T16:24:00.558Z,9.67
2019-05-07T16:26:32.544Z,10.47
2019-05-07T16:29:04.661Z,9.63
2019-05-07T16:31:33.216Z,18.77
2019-05-07T16:34:02.773Z,11.30
2019-05-07T16:36:33.507Z,7.40
2019-05-07T16:39:03.636Z,10.53
2019-05-07T16:41:37.997Z,14.00
2019-05-07T16:44:05.165Z,12.93
2019-05-07T16:46:37.419Z,7.20
2019-05-07T18:07:47.942Z,12.97
2019-05-07T20:10:07.771Z,17.10
2019-05-07T20:12:34.067Z,12.63
2019-05-07T20:15:02.657Z,13.70
2019-05-07T20:17:34.097Z,10.73
2019-05-07T20:20:02.939Z,18.30
2019-05-07T20:22:28.721Z,12.70
2019-05-07T20:25:11.754Z,10.47
2019-05-07T20:27:26.443Z,10.73
2019-05-07T20:29:53.208Z,17.30
2019-05-07T20:32:24.891Z,13.93
2019-05-07T20:34:52.651Z,12.70
2019-05-07T20:37:19.014Z,12.80
2019-05-07T20:39:45.328Z,15.60
2019-05-07T20:42:12.420Z,12.00
2019-05-07T20:44:42.453Z,11.90
2019-05-07T20:47:08.573Z,10.53
2019-05-07T20:49:36.611Z,15.43
2019-05-07T20:52:03.096Z,12.50
2019-05-07T20:54:34.113Z,12.53
2019-05-07T20:57:08.424Z,16.23
2019-05-07T20:59:34.695Z,11.90
2019-05-07T21:02:02.298Z,12.40
2019-05-07T21:04:28.684Z,12.87
2019-05-07T21:06:54.935Z,13.63
2019-05-07T21:09:22.055Z,13.00
2019-05-07T21:11:48.453Z,14.23
2019-05-07T21:14:14.701Z,8.33
2019-05-07T21:16:42.530Z,11.70
2019-05-07T21:19:08.882Z,11.93
2019-05-07T21:21:35.148Z,11.80
2019-05-07T21:24:02.093Z,12.20
2019-05-07T21:26:28.521Z,13.90
2019-05-07T21:28:54.862Z,10.50
2019-05-07T21:31:22.841Z,17.57
2019-05-07T21:33:49.458Z,10.63
2019-05-07T21:36:15.725Z,9.90
2019-05-07T21:38:42.657Z,10.17
2019-05-07T21:41:09.072Z,16.53
2019-05-07T21:43:35.321Z,9.77
2019-05-07T21:46:02.398Z,10.73
2019-05-07T21:48:29.952Z,11.57
2019-05-07T21:50:56.223Z,10.73
2019-05-07T21:53:26.109Z,12.40
2019-05-07T21:56:01.689Z,12.30
2019-05-07T21:58:32.859Z,13.00
2019-05-07T22:01:02.067Z,12.70
2019-05-07T22:03:28.585Z,15.23
2019-05-07T22:05:54.950Z,14.53
2019-05-07T22:08:21.866Z,13.07
2019-05-07T22:10:48.320Z,10.20
2019-05-07T22:13:14.604Z,15.77
2019-05-07T22:15:42.371Z,11.00
2019-05-07T22:18:08.885Z,11.90
2019-05-07T22:20:35.129Z,10.90
2019-05-07T22:23:02.811Z,10.30
2019-05-07T22:25:29.151Z,12.20
2019-05-07T22:27:55.644Z,10.43
2019-05-07T22:30:23.812Z,11.03
2019-05-07T22:32:52.760Z,14.50
2019-05-07T22:35:22.676Z,10.80
2019-05-07T22:37:48.973Z,10.60
2019-05-07T22:40:19.131Z,14.67
2019-05-07T22:42:47.277Z,13.03
2019-05-07T22:45:13.989Z,12.93
2019-05-07T22:47:41.994Z,17.40
2019-05-07T22:50:08.606Z,10.87
2019-05-07T22:52:34.832Z,13.33
2019-05-07T22:55:01.182Z,14.50
2019-05-07T22:57:35.321Z,16.30
2019-05-07T23:00:05.474Z,13.00
2019-05-07T23:02:32.212Z,13.93
2019-05-07T23:04:58.497Z,14.97
2019-05-07T23:07:24.780Z,18.60
2019-05-07T23:09:52.196Z,12.63
2019-05-07T23:12:18.560Z,18.63
2019-05-07T23:14:44.788Z,17.33
2019-05-07T23:17:12.611Z,14.80
2019-05-07T23:19:38.879Z,17.37
2019-05-07T23:22:05.143Z,13.47
2019-05-07T23:24:31.938Z,14.73
2019-05-07T23:26:58.162Z,11.53
2019-05-07T23:29:24.425Z,10.23
2019-05-07T23:31:52.977Z,11.40
2019-05-07T23:34:18.768Z,11.67
2019-05-07T23:36:45.014Z,14.17
2019-05-07T23:39:13.251Z,13.30
2019-05-07T23:41:47.144Z,9.60
2019-05-07T23:44:15.222Z,16.37
2019-05-07T23:46:42.613Z,11.20
2019-05-07T23:49:09.814Z,11.60
2019-05-07T23:51:36.191Z,13.80
2019-05-07T23:54:02.986Z,11.43
2019-05-07T23:56:29.171Z,11.57
2019-05-07T23:58:55.463Z,9.83
